Warning: Javascript must be enabled to use all the features on this page!


Page Loading - Please Wait...

Click to hideNews Bulletins
  • Have your voice heard. Have a few minutes? We're surveying users about their experience with Water Data for the Nation (WDFN). Please take a few minutes to complete our online survey.
  • See the Water Data for the Nation Blog for the latest news and updates.

Peak Streamflow for the Nation

USGS 09408150 VIRGIN RIVER NEAR HURRICANE, UT

Washington County, Utah
Hydrologic Unit Code 15010008
Latitude  37°09'46", Longitude 113°23'40" NAD27
Drainage area 1,493  square miles
Gage datum 2,739.42 feet above NAVD88
Output formats
Table
Graph
Tab-separated file
peakfq (watstore) format
Reselect output format
Water
Year
Date Gage
Height
(feet)
Stream-
flow
(cfs)
1967 1966-12-06 17.343 20,1005
1968 1968-08-07 9.113 5,4105
1969 1969-01-25 14.293 12,8005
1970 1970-08-18 6.993 3,3805
1971 1971-08-21 9.003 6,2505
1972 1972-09-19 11.883 10,4005
1973 1973-05-14 6.363 3,3505
1974 1974-04-02 3.673 1,0905
1975 1975-07-29 8.953 7,3205
1976 1976-07-29 4.963 2,0605
1977 1977-07-23 7.222,3 4,8305
1978 1978-03-05 16.283 18,7005
1979 1979-03-28 9.693 8,4405
1980 1980-09-10 11.333 10,9005
1981 1981-07-15 6.823 4,3405
1982 1982-09-27 8.623 6,8105
1983 1982-11-30 8.373 6,6405
1984 1984-07-23 7.833 5,6605
1985 1985-07-20 5.383 2,7005
1986 1985-11-30 4.483 1,5606
1987 1987-07-21 7.803 4,8606
1988 1987-11-06 9.433 7,3106
1989 1989-01-01   66,0006
1991 1991-03-01 13.626 7476
1992 1992-08-23 18.053 3,9006
1993 1993-02-20 17.693 4,8706
1994 1993-10-06 12.556 5,0006
1995 1995-03-06 15.63 7,0206
1996 1995-11-01 12.51 4,9906
1997 1997-01-03 12.71 5,1206
1998 1998-09-11 14.02 6,2906
1999 1999-08-30 12.68 5,1106
2000 2000-02-24 8.34 1,2606
2001 2000-10-30 8.88 1,8106
2002 2002-09-06 12.25 4,8006
2003 2002-11-09 11.38 4,2306
2004 2003-12-26 9.30 2,2806
2005 2005-01-11 19.36 21,0006
2006 2006-07-31 13.26 4,3606
2007 2007-08-01 15.81 8,1706
2008 2008-01-05 13.12 5,1506
2009 2009-01-24 10.576 8346
2010 2010-04-21 13.38 3,0506
2011 2010-12-21 19.53 17,7006
2012 2011-10-06 13.28 2,9506
2013 2013-08-26 13.02 2,6706
2014 2014-09-09 15.96 7,1806
2015 2015-09-15 13.07 2,7206
2016 2016-09-22 13.94 3,7606
2017 2017-02-11 14.45 4,6406
2018 2018-08-22 14.07 4,0906
2019 2019-03-06 16.94 9,6206
2020 2020-03-13 12.41 2,0906
2021 2021-08-01 13.30 2,9806
?
  Peak Gage-Height Qualification Codes.
?
  Peak Streamflow Qualification Codes.